createdAt,value
2022-08-20T00:00:03.049Z,28.67
2022-08-20T00:00:13.043Z,28.65
2022-08-20T00:00:23.049Z,28.61
2022-08-20T00:00:33.044Z,28.65
2022-08-20T00:00:43.046Z,28.65
2022-08-20T00:00:53.040Z,28.62
2022-08-20T00:01:06.178Z,28.67
2022-08-20T00:01:13.037Z,28.67
2022-08-20T00:01:23.155Z,28.67
2022-08-20T00:01:33.087Z,28.62
2022-08-20T00:01:43.093Z,28.64
2022-08-20T00:01:53.098Z,28.64
2022-08-20T00:02:03.095Z,28.65
2022-08-20T00:02:13.106Z,28.65
2022-08-20T00:02:23.034Z,28.64
2022-08-20T00:02:33.048Z,28.65
2022-08-20T00:02:43.041Z,28.65
2022-08-20T00:02:53.032Z,28.62
2022-08-20T00:03:03.034Z,28.65
2022-08-20T00:03:13.024Z,28.62
2022-08-20T00:03:23.338Z,28.67
2022-08-20T00:03:33.026Z,28.64
2022-08-20T00:03:44.605Z,28.61
2022-08-20T00:03:53.435Z,28.64
2022-08-20T00:04:03.023Z,28.64
2022-08-20T00:04:13.020Z,28.62
2022-08-20T00:04:23.021Z,28.62
2022-08-20T00:04:33.017Z,28.64
2022-08-20T00:04:43.020Z,28.61
2022-08-20T00:04:53.015Z,28.62
2022-08-20T00:05:03.019Z,28.64
2022-08-20T00:05:13.009Z,28.64
2022-08-20T00:05:23.015Z,28.65
2022-08-20T00:05:33.010Z,28.64
2022-08-20T00:05:43.020Z,28.64
2022-08-20T00:05:53.008Z,28.65
2022-08-20T00:06:03.010Z,28.64
2022-08-20T00:06:13.005Z,28.65
2022-08-20T00:06:23.009Z,28.65
2022-08-20T00:06:33.024Z,28.64
2022-08-20T00:06:53.003Z,28.64
2022-08-20T00:07:09.850Z,28.62
2022-08-20T00:07:14.556Z,28.62
2022-08-20T00:07:24.560Z,28.62
2022-08-20T00:07:34.555Z,28.64
2022-08-20T00:07:44.557Z,28.64
2022-08-20T00:07:54.770Z,28.64
2022-08-20T00:08:04.570Z,28.61
2022-08-20T00:08:14.551Z,28.62
2022-08-20T00:08:24.555Z,28.65
2022-08-20T00:08:34.550Z,28.64
2022-08-20T00:08:44.549Z,28.64
2022-08-20T00:08:54.548Z,28.62
2022-08-20T00:09:04.548Z,28.65
2022-08-20T00:09:14.544Z,28.64
2022-08-20T00:09:24.546Z,28.64
2022-08-20T00:09:34.540Z,28.62
2022-08-20T00:09:44.544Z,28.65
2022-08-20T00:09:54.540Z,28.64
2022-08-20T00:10:04.540Z,28.62
2022-08-20T00:10:14.538Z,28.64
2022-08-20T00:10:24.539Z,28.64
2022-08-20T00:10:34.533Z,28.62
2022-08-20T00:10:45.151Z,28.64
2022-08-20T00:10:55.788Z,28.62
2022-08-20T00:11:04.535Z,28.65
2022-08-20T00:11:14.531Z,28.62
2022-08-20T00:11:25.150Z,28.62
2022-08-20T00:11:34.545Z,28.62
2022-08-20T00:11:44.534Z,28.64
2022-08-20T00:11:54.527Z,28.62
2022-08-20T00:12:04.545Z,28.62
2022-08-20T00:12:14.523Z,28.64
2022-08-20T00:12:24.549Z,28.64
2022-08-20T00:12:34.524Z,28.65
2022-08-20T00:12:44.528Z,28.62
2022-08-20T00:12:54.521Z,28.64
2022-08-20T00:13:04.520Z,28.62
2022-08-20T00:13:16.133Z,28.62
2022-08-20T00:13:24.518Z,28.62
2022-08-20T00:13:34.516Z,28.62
2022-08-20T00:13:44.517Z,28.62
2022-08-20T00:13:54.513Z,28.62
2022-08-20T00:14:04.515Z,28.62
2022-08-20T00:14:14.512Z,28.64
2022-08-20T00:14:24.514Z,28.62
2022-08-20T00:14:34.512Z,28.64
2022-08-20T00:14:44.512Z,28.62
2022-08-20T00:14:54.505Z,28.62
2022-08-20T00:15:04.516Z,28.61
2022-08-20T00:15:14.502Z,28.64
2022-08-20T00:15:24.505Z,28.60
2022-08-20T00:15:34.507Z,28.61
2022-08-20T00:15:44.509Z,28.61
2022-08-20T00:15:54.502Z,28.62
2022-08-20T00:16:04.504Z,28.60
2022-08-20T00:16:14.496Z,28.64
2022-08-20T00:16:24.531Z,28.61
2022-08-20T00:16:34.495Z,28.61
2022-08-20T00:16:44.500Z,28.61
2022-08-20T00:16:54.497Z,28.61
2022-08-20T00:17:04.510Z,28.61
2022-08-20T00:17:14.494Z,28.58
2022-08-20T00:17:24.492Z,28.62
2022-08-20T00:17:34.507Z,28.61
2022-08-20T00:17:44.492Z,28.62
2022-08-20T00:17:54.656Z,28.62
2022-08-20T00:18:04.489Z,28.61
2022-08-20T00:18:14.485Z,28.64
2022-08-20T00:18:24.489Z,28.58
2022-08-20T00:18:34.483Z,28.60
2022-08-20T00:18:44.485Z,28.62
2022-08-20T00:18:54.482Z,28.61
2022-08-20T00:19:04.482Z,28.61
2022-08-20T00:19:14.477Z,28.61
2022-08-20T00:19:24.488Z,28.61
2022-08-20T00:19:34.477Z,28.61
2022-08-20T00:19:44.481Z,28.61
2022-08-20T00:19:54.476Z,28.61
2022-08-20T00:20:04.480Z,28.61
2022-08-20T00:20:14.473Z,28.60
2022-08-20T00:20:24.473Z,28.62
2022-08-20T00:20:34.470Z,28.60
2022-08-20T00:20:44.475Z,28.64
2022-08-20T00:20:54.467Z,28.62
2022-08-20T00:21:04.470Z,28.61
2022-08-20T00:21:19.058Z,28.60
2022-08-20T00:21:24.468Z,28.61
2022-08-20T00:21:44.467Z,28.61
2022-08-20T00:21:57.965Z,28.62
2022-08-20T00:22:04.469Z,28.62
2022-08-20T00:22:14.473Z,28.61
2022-08-20T00:22:24.460Z,28.61
2022-08-20T00:22:34.460Z,28.61
2022-08-20T00:22:44.469Z,28.62
2022-08-20T00:22:54.460Z,28.61
2022-08-20T00:23:08.544Z,28.61
2022-08-20T00:23:14.882Z,28.61
2022-08-20T00:23:24.452Z,28.61
2022-08-20T00:23:34.460Z,28.61
2022-08-20T00:23:44.452Z,28.61
2022-08-20T00:23:54.470Z,28.60
2022-08-20T00:24:14.452Z,28.58
2022-08-20T00:24:24.448Z,28.61
2022-08-20T00:24:34.448Z,28.64
2022-08-20T00:24:44.444Z,28.60
2022-08-20T00:24:54.445Z,28.60
2022-08-20T00:25:04.444Z,28.60
2022-08-20T00:25:14.444Z,28.61
2022-08-20T00:25:24.439Z,28.62
2022-08-20T00:25:34.445Z,28.60
2022-08-20T00:25:44.436Z,28.61
2022-08-20T00:25:54.441Z,28.61
2022-08-20T00:26:04.456Z,28.61
2022-08-20T00:26:14.439Z,28.61
2022-08-20T00:26:24.439Z,28.61
2022-08-20T00:26:34.437Z,28.58
2022-08-20T00:26:51.740Z,28.60
2022-08-20T00:26:57.177Z,28.58
2022-08-20T00:27:04.430Z,28.58
2022-08-20T00:27:14.432Z,28.58
2022-08-20T00:27:24.426Z,28.62
2022-08-20T00:27:34.433Z,28.60
2022-08-20T00:27:44.426Z,28.60
2022-08-20T00:27:54.535Z,28.58
2022-08-20T00:28:04.424Z,28.58
2022-08-20T00:28:14.446Z,28.61
2022-08-20T00:28:24.419Z,28.61
2022-08-20T00:28:34.422Z,28.60
2022-08-20T00:28:44.417Z,28.60
2022-08-20T00:28:54.438Z,28.58
2022-08-20T00:29:14.419Z,28.60
2022-08-20T00:29:24.413Z,28.61
2022-08-20T00:29:34.419Z,28.60
2022-08-20T00:29:44.413Z,28.60
2022-08-20T00:29:54.414Z,28.60
2022-08-20T00:30:04.409Z,28.61
2022-08-20T00:30:14.410Z,28.62
2022-08-20T00:30:24.407Z,28.61
2022-08-20T00:30:34.411Z,28.60
2022-08-20T00:30:44.405Z,28.58
2022-08-20T00:30:54.409Z,28.58
2022-08-20T00:31:04.403Z,28.58
2022-08-20T00:31:14.406Z,28.61
2022-08-20T00:31:24.420Z,28.61
2022-08-20T00:31:34.402Z,28.60
2022-08-20T00:31:44.399Z,28.60
2022-08-20T00:31:54.403Z,28.58
2022-08-20T00:32:04.402Z,28.60
2022-08-20T00:32:14.397Z,28.60
2022-08-20T00:32:24.397Z,28.60
2022-08-20T00:32:34.397Z,28.57
2022-08-20T00:32:44.391Z,28.60
2022-08-20T00:32:54.397Z,28.60
2022-08-20T00:33:04.390Z,28.62
2022-08-20T00:33:14.395Z,28.61
2022-08-20T00:33:24.391Z,28.60
2022-08-20T00:33:34.393Z,28.58
2022-08-20T00:33:44.386Z,28.58
2022-08-20T00:33:54.405Z,28.60
2022-08-20T00:34:04.384Z,28.58
2022-08-20T00:34:14.404Z,28.58
2022-08-20T00:34:24.384Z,28.57
2022-08-20T00:34:34.380Z,28.60
2022-08-20T00:34:44.379Z,28.58
2022-08-20T00:34:54.396Z,28.58
2022-08-20T00:35:04.376Z,28.58
2022-08-20T00:35:14.384Z,28.61
2022-08-20T00:35:24.374Z,28.57
2022-08-20T00:35:34.376Z,28.60
2022-08-20T00:35:44.374Z,28.58
2022-08-20T00:35:54.375Z,28.60
2022-08-20T00:36:04.370Z,28.58
2022-08-20T00:36:14.371Z,28.57
2022-08-20T00:36:32.160Z,28.58
2022-08-20T00:36:44.365Z,28.55
2022-08-20T00:36:54.367Z,28.57
2022-08-20T00:37:04.372Z,28.57
2022-08-20T00:37:14.365Z,28.58
2022-08-20T00:37:24.362Z,28.58
2022-08-20T00:37:34.367Z,28.60
2022-08-20T00:37:44.359Z,28.58
2022-08-20T00:37:58.627Z,28.58
2022-08-20T00:38:05.144Z,28.57
2022-08-20T00:38:14.358Z,28.60
2022-08-20T00:38:24.381Z,28.58
2022-08-20T00:38:34.395Z,28.61
2022-08-20T00:38:44.352Z,28.57
2022-08-20T00:38:54.355Z,28.57
2022-08-20T00:39:14.352Z,28.60
2022-08-20T00:39:24.348Z,28.60
2022-08-20T00:39:34.400Z,28.60
2022-08-20T00:39:44.386Z,28.60
2022-08-20T00:39:54.403Z,28.60
2022-08-20T00:40:04.411Z,28.60
2022-08-20T00:40:22.872Z,28.57
2022-08-20T00:40:27.689Z,28.60
2022-08-20T00:40:34.355Z,28.57
2022-08-20T00:40:44.341Z,28.58
2022-08-20T00:40:54.340Z,28.58
2022-08-20T00:41:04.338Z,28.57
2022-08-20T00:41:14.341Z,28.57
2022-08-20T00:41:24.335Z,28.60
2022-08-20T00:41:34.342Z,28.58
2022-08-20T00:41:44.333Z,28.58
2022-08-20T00:41:54.339Z,28.61
2022-08-20T00:42:04.333Z,28.57
2022-08-20T00:42:14.337Z,28.58
2022-08-20T00:42:24.327Z,28.58
2022-08-20T00:42:34.331Z,28.58
2022-08-20T00:42:44.326Z,28.61
2022-08-20T00:42:54.331Z,28.57
2022-08-20T00:43:04.324Z,28.60
2022-08-20T00:43:14.327Z,28.60
2022-08-20T00:43:24.323Z,28.58
2022-08-20T00:43:34.325Z,28.60
2022-08-20T00:43:44.319Z,28.60
2022-08-20T00:43:54.324Z,28.60
2022-08-20T00:44:04.334Z,28.60
2022-08-20T00:44:24.320Z,28.60
2022-08-20T00:44:34.320Z,28.58
2022-08-20T00:44:44.315Z,28.61
2022-08-20T00:44:54.317Z,28.57
2022-08-20T00:45:04.312Z,28.58
2022-08-20T00:45:14.315Z,28.58
2022-08-20T00:45:24.310Z,28.60
2022-08-20T00:45:34.313Z,28.60
2022-08-20T00:45:44.306Z,28.60
2022-08-20T00:45:54.311Z,28.58
2022-08-20T00:46:04.312Z,28.58
2022-08-20T00:46:14.305Z,28.60
2022-08-20T00:46:28.194Z,28.58
2022-08-20T00:46:36.496Z,28.57
2022-08-20T00:46:54.302Z,28.60
2022-08-20T00:47:04.299Z,28.61
2022-08-20T00:47:14.299Z,28.60
2022-08-20T00:47:24.299Z,28.58
2022-08-20T00:47:34.298Z,28.60
2022-08-20T00:47:51.217Z,28.57
2022-08-20T00:47:56.249Z,28.60
2022-08-20T00:48:04.297Z,28.60
2022-08-20T00:48:14.297Z,28.58
2022-08-20T00:48:24.289Z,28.60
2022-08-20T00:48:34.291Z,28.60
2022-08-20T00:48:44.286Z,28.61
2022-08-20T00:48:54.290Z,28.60
2022-08-20T00:49:04.285Z,28.61
2022-08-20T00:49:14.301Z,28.58
2022-08-20T00:49:34.312Z,28.58
2022-08-20T00:49:44.284Z,28.60
2022-08-20T00:49:54.286Z,28.60
2022-08-20T00:50:04.280Z,28.60
2022-08-20T00:50:14.281Z,28.60
2022-08-20T00:50:24.277Z,28.60
2022-08-20T00:50:34.281Z,28.60
2022-08-20T00:50:44.275Z,28.58
2022-08-20T00:50:54.278Z,28.60
2022-08-20T00:51:04.273Z,28.60
2022-08-20T00:51:14.299Z,28.60
2022-08-20T00:51:24.271Z,28.58
2022-08-20T00:51:34.271Z,28.58
2022-08-20T00:51:44.266Z,28.58
2022-08-20T00:51:54.270Z,28.57
2022-08-20T00:52:04.269Z,28.58
2022-08-20T00:52:14.268Z,28.58
2022-08-20T00:52:24.263Z,28.57
2022-08-20T00:52:34.267Z,28.60
2022-08-20T00:52:49.825Z,28.60
2022-08-20T00:52:54.730Z,28.57
2022-08-20T00:53:04.260Z,28.58
2022-08-20T00:53:14.260Z,28.58
2022-08-20T00:53:24.259Z,28.55
2022-08-20T00:53:34.262Z,28.60
2022-08-20T00:53:44.255Z,28.60
2022-08-20T00:53:54.257Z,28.57
2022-08-20T00:54:04.254Z,28.54
2022-08-20T00:54:14.255Z,28.61
2022-08-20T00:54:24.261Z,28.57
2022-08-20T00:54:34.250Z,28.57
2022-08-20T00:54:44.253Z,28.58
2022-08-20T00:54:54.249Z,28.58
2022-08-20T00:55:04.245Z,28.57
2022-08-20T00:55:14.248Z,28.58
2022-08-20T00:55:27.423Z,28.57
2022-08-20T00:55:34.253Z,28.57
2022-08-20T00:55:44.242Z,28.57
2022-08-20T00:55:54.245Z,28.60
2022-08-20T00:56:04.241Z,28.58
2022-08-20T00:56:14.241Z,28.58
2022-08-20T00:56:24.252Z,28.58
2022-08-20T00:56:34.238Z,28.58
2022-08-20T00:56:44.234Z,28.58
2022-08-20T00:56:54.237Z,28.58
2022-08-20T00:57:04.232Z,28.57
2022-08-20T00:57:14.237Z,28.58
2022-08-20T00:57:24.232Z,28.57
2022-08-20T00:57:59.942Z,28.58
2022-08-20T00:58:06.774Z,28.58
2022-08-20T00:58:11.618Z,28.57
2022-08-20T00:58:21.619Z,28.58
2022-08-20T00:58:31.613Z,28.60
2022-08-20T00:58:41.618Z,28.58
2022-08-20T00:58:51.655Z,28.57
2022-08-20T00:59:01.615Z,28.57
2022-08-20T00:59:11.824Z,28.54
2022-08-20T00:59:21.609Z,28.55
2022-08-20T00:59:31.608Z,28.57
2022-08-20T00:59:41.608Z,28.57
2022-08-20T00:59:51.604Z,28.57
2022-08-20T01:00:01.626Z,28.54
2022-08-20T01:00:11.606Z,28.58
2022-08-20T01:00:21.606Z,28.57
2022-08-20T01:00:31.600Z,28.55
2022-08-20T01:00:41.608Z,28.57
2022-08-20T01:00:51.600Z,28.57
2022-08-20T01:01:01.601Z,28.57
2022-08-20T01:01:11.599Z,28.55
2022-08-20T01:01:21.691Z,28.55
2022-08-20T01:01:31.609Z,28.55
2022-08-20T01:01:55.709Z,28.55
2022-08-20T01:02:00.947Z,28.54
2022-08-20T01:02:05.687Z,28.55
2022-08-20T01:02:15.722Z,28.55
2022-08-20T01:02:25.622Z,28.55
2022-08-20T01:02:35.630Z,28.55
2022-08-20T01:02:45.622Z,28.55
2022-08-20T01:02:55.617Z,28.55
2022-08-20T01:03:05.619Z,28.55
2022-08-20T01:03:15.613Z,28.58
2022-08-20T01:03:25.616Z,28.54
2022-08-20T01:03:35.615Z,28.55
2022-08-20T01:03:45.649Z,28.57
2022-08-20T01:03:55.611Z,28.58
2022-08-20T01:04:05.611Z,28.54
2022-08-20T01:04:15.610Z,28.52
2022-08-20T01:04:25.613Z,28.54
2022-08-20T01:04:35.607Z,28.57
2022-08-20T01:04:45.606Z,28.54
2022-08-20T01:04:55.604Z,28.52
2022-08-20T01:05:05.605Z,28.54
2022-08-20T01:05:15.604Z,28.55
2022-08-20T01:05:28.648Z,28.51
2022-08-20T01:05:35.623Z,28.52
2022-08-20T01:05:55.613Z,28.55
2022-08-20T01:06:05.601Z,28.52
2022-08-20T01:06:15.598Z,28.55
2022-08-20T01:06:25.594Z,28.54
2022-08-20T01:06:35.600Z,28.57
2022-08-20T01:06:45.591Z,28.55
2022-08-20T01:06:55.594Z,28.52
2022-08-20T01:07:05.595Z,28.52
2022-08-20T01:07:15.591Z,28.52
2022-08-20T01:07:25.589Z,28.54
2022-08-20T01:07:35.601Z,28.54
2022-08-20T01:07:45.587Z,28.52
2022-08-20T01:07:55.744Z,28.54
2022-08-20T01:08:05.591Z,28.55
2022-08-20T01:08:25.583Z,28.55
2022-08-20T01:08:35.580Z,28.55
2022-08-20T01:08:45.580Z,28.54
2022-08-20T01:08:55.581Z,28.55
2022-08-20T01:09:05.577Z,28.55
2022-08-20T01:09:15.579Z,28.57
2022-08-20T01:09:49.675Z,28.55
2022-08-20T01:10:01.836Z,28.55
2022-08-20T01:10:06.499Z,28.51
2022-08-20T01:10:16.505Z,28.54
2022-08-20T01:10:26.498Z,28.54
2022-08-20T01:10:36.497Z,28.55
2022-08-20T01:10:46.493Z,28.55
2022-08-20T01:10:56.496Z,28.54
2022-08-20T01:11:06.492Z,28.55
2022-08-20T01:11:16.506Z,28.55
2022-08-20T01:11:26.489Z,28.57
2022-08-20T01:11:37.228Z,28.57
2022-08-20T01:11:46.489Z,28.55
2022-08-20T01:11:56.504Z,28.55
2022-08-20T01:12:06.526Z,28.52
2022-08-20T01:12:16.493Z,28.57
2022-08-20T01:12:26.485Z,28.55
2022-08-20T01:12:36.485Z,28.55
2022-08-20T01:12:46.481Z,28.55
2022-08-20T01:12:59.533Z,28.52
2022-08-20T01:13:06.488Z,28.52
2022-08-20T01:13:16.505Z,28.52
2022-08-20T01:13:26.477Z,28.54
2022-08-20T01:13:36.480Z,28.54
2022-08-20T01:13:46.476Z,28.55
2022-08-20T01:13:56.477Z,28.55
2022-08-20T01:14:06.477Z,28.54
2022-08-20T01:14:16.475Z,28.57
2022-08-20T01:14:26.470Z,28.57
2022-08-20T01:14:36.481Z,28.51
2022-08-20T01:14:46.470Z,28.55
2022-08-20T01:14:56.470Z,28.51
2022-08-20T01:15:06.474Z,28.51
2022-08-20T01:15:16.468Z,28.52
2022-08-20T01:15:30.674Z,28.51
2022-08-20T01:15:38.994Z,28.51
2022-08-20T01:15:56.465Z,28.54
2022-08-20T01:16:06.494Z,28.52
2022-08-20T01:16:16.461Z,28.54
2022-08-20T01:16:26.457Z,28.54
2022-08-20T01:16:36.461Z,28.52
2022-08-20T01:16:46.455Z,28.51
2022-08-20T01:16:56.460Z,28.54
2022-08-20T01:17:06.454Z,28.52
2022-08-20T01:17:16.466Z,28.54
2022-08-20T01:17:26.453Z,28.54
2022-08-20T01:17:36.481Z,28.52
2022-08-20T01:17:46.445Z,28.55
2022-08-20T01:17:56.586Z,28.54
2022-08-20T01:18:06.449Z,28.52
2022-08-20T01:18:16.464Z,28.54
2022-08-20T01:18:26.445Z,28.55
2022-08-20T01:18:36.447Z,28.52
2022-08-20T01:18:46.443Z,28.55
2022-08-20T01:18:56.445Z,28.52
2022-08-20T01:19:06.441Z,28.57
2022-08-20T01:19:34.708Z,28.55
2022-08-20T01:19:39.370Z,28.52
2022-08-20T01:19:49.403Z,28.51
2022-08-20T01:19:59.373Z,28.52
2022-08-20T01:20:09.375Z,28.52
2022-08-20T01:20:19.366Z,28.55
2022-08-20T01:20:29.372Z,28.52
2022-08-20T01:20:39.363Z,28.54
2022-08-20T01:20:49.368Z,28.52
2022-08-20T01:20:59.363Z,28.51
2022-08-20T01:21:09.363Z,28.52
2022-08-20T01:21:19.358Z,28.52
2022-08-20T01:21:29.363Z,28.54
2022-08-20T01:21:39.361Z,28.54
2022-08-20T01:21:49.912Z,28.50
2022-08-20T01:21:59.355Z,28.52
2022-08-20T01:22:09.356Z,28.55
2022-08-20T01:22:19.357Z,28.54
2022-08-20T01:22:29.360Z,28.52
2022-08-20T01:22:39.348Z,28.55
2022-08-20T01:22:49.353Z,28.52
2022-08-20T01:22:59.350Z,28.54
2022-08-20T01:23:09.356Z,28.51
2022-08-20T01:23:19.359Z,28.51
2022-08-20T01:23:29.350Z,28.55
2022-08-20T01:23:49.355Z,28.52
2022-08-20T01:23:59.343Z,28.54
2022-08-20T01:24:09.346Z,28.55
2022-08-20T01:24:19.341Z,28.54
2022-08-20T01:24:29.342Z,28.51
2022-08-20T01:24:39.338Z,28.54
2022-08-20T01:24:49.345Z,28.52
2022-08-20T01:24:59.335Z,28.52
2022-08-20T01:25:09.338Z,28.51
2022-08-20T01:25:19.339Z,28.52
2022-08-20T01:25:29.339Z,28.54
2022-08-20T01:25:39.346Z,28.52
2022-08-20T01:25:49.333Z,28.54
2022-08-20T01:25:59.330Z,28.54
2022-08-20T01:26:09.331Z,28.51
2022-08-20T01:26:29.333Z,28.51
2022-08-20T01:26:39.324Z,28.52
2022-08-20T01:26:49.345Z,28.48
2022-08-20T01:26:59.322Z,28.50
2022-08-20T01:27:09.328Z,28.51
2022-08-20T01:27:19.320Z,28.50
2022-08-20T01:27:29.324Z,28.52
2022-08-20T01:27:42.470Z,28.51
2022-08-20T01:27:55.225Z,28.50
2022-08-20T01:28:00.745Z,28.50
2022-08-20T01:28:09.318Z,28.52
2022-08-20T01:28:19.314Z,28.50
2022-08-20T01:28:29.321Z,28.52
2022-08-20T01:28:39.325Z,28.51
2022-08-20T01:28:49.331Z,28.48
2022-08-20T01:29:09.311Z,28.51
2022-08-20T01:29:19.306Z,28.51
2022-08-20T01:29:29.311Z,28.51
2022-08-20T01:29:39.304Z,28.52
2022-08-20T01:29:49.306Z,28.50
2022-08-20T01:29:59.306Z,28.50
2022-08-20T01:30:09.305Z,28.51
2022-08-20T01:30:19.300Z,28.50
2022-08-20T01:30:29.303Z,28.51
2022-08-20T01:30:39.300Z,28.51
2022-08-20T01:30:49.301Z,28.50
2022-08-20T01:30:59.300Z,28.54
2022-08-20T01:31:09.297Z,28.51
2022-08-20T01:31:20.079Z,28.52
2022-08-20T01:31:39.290Z,28.51
2022-08-20T01:31:49.296Z,28.52
2022-08-20T01:31:59.292Z,28.51
2022-08-20T01:32:09.289Z,28.51
2022-08-20T01:32:19.295Z,28.54
2022-08-20T01:32:29.293Z,28.51
2022-08-20T01:32:39.290Z,28.51
2022-08-20T01:32:49.288Z,28.54
2022-08-20T01:32:59.282Z,28.48
2022-08-20T01:33:09.286Z,28.52
2022-08-20T01:33:19.281Z,28.50
2022-08-20T01:33:29.284Z,28.51
2022-08-20T01:33:39.280Z,28.51
2022-08-20T01:33:49.300Z,28.51
2022-08-20T01:34:09.281Z,28.51
2022-08-20T01:34:19.273Z,28.50
2022-08-20T01:34:29.277Z,28.50
2022-08-20T01:34:39.279Z,28.51
2022-08-20T01:34:49.274Z,28.51
2022-08-20T01:34:59.275Z,28.52
2022-08-20T01:35:09.274Z,28.48
2022-08-20T01:35:19.264Z,28.51
2022-08-20T01:35:29.271Z,28.51
2022-08-20T01:35:39.262Z,28.51
2022-08-20T01:35:49.271Z,28.51
2022-08-20T01:35:59.266Z,28.55
2022-08-20T01:36:09.266Z,28.51
2022-08-20T01:36:19.260Z,28.50
2022-08-20T01:36:43.038Z,28.50
2022-08-20T01:36:50.087Z,28.51
2022-08-20T01:36:59.259Z,28.50
2022-08-20T01:37:09.260Z,28.52
2022-08-20T01:37:19.253Z,28.51
2022-08-20T01:37:31.510Z,28.50
2022-08-20T01:37:39.253Z,28.51
2022-08-20T01:37:49.307Z,28.50
2022-08-20T01:37:59.255Z,28.52
2022-08-20T01:38:09.257Z,28.51
2022-08-20T01:38:19.251Z,28.52
2022-08-20T01:38:29.249Z,28.48
2022-08-20T01:38:39.247Z,28.51
2022-08-20T01:38:59.255Z,28.50
2022-08-20T01:39:09.245Z,28.50
2022-08-20T01:39:19.242Z,28.48
2022-08-20T01:39:29.243Z,28.51
2022-08-20T01:39:39.276Z,28.48
2022-08-20T01:39:49.308Z,28.48
2022-08-20T01:39:59.290Z,28.52
2022-08-20T01:40:09.426Z,28.51
2022-08-20T01:40:19.236Z,28.51
2022-08-20T01:40:29.237Z,28.50
2022-08-20T01:40:39.234Z,28.48
2022-08-20T01:40:49.235Z,28.50
2022-08-20T01:40:59.231Z,28.50
2022-08-20T01:41:09.232Z,28.51
2022-08-20T01:41:19.228Z,28.51
2022-08-20T01:41:32.628Z,28.50
2022-08-20T01:41:39.226Z,28.50
2022-08-20T01:41:59.255Z,28.50
2022-08-20T01:42:09.228Z,28.52
2022-08-20T01:42:19.223Z,28.50
2022-08-20T01:42:29.227Z,28.50
2022-08-20T01:42:39.220Z,28.51
2022-08-20T01:43:03.132Z,28.48
2022-08-20T01:43:08.927Z,28.46
2022-08-20T01:43:18.907Z,28.51
2022-08-20T01:43:28.904Z,28.48
2022-08-20T01:43:38.906Z,28.46
2022-08-20T01:43:48.914Z,28.51
2022-08-20T01:43:58.923Z,28.50
2022-08-20T01:44:16.041Z,28.50
2022-08-20T01:44:24.960Z,28.50
2022-08-20T01:44:29.759Z,28.50
2022-08-20T01:44:39.756Z,28.48
2022-08-20T01:44:49.752Z,28.48
2022-08-20T01:45:00.516Z,28.45
2022-08-20T01:45:09.748Z,28.48
2022-08-20T01:45:19.748Z,28.50
2022-08-20T01:45:30.930Z,28.48
2022-08-20T01:45:40.157Z,28.50
2022-08-20T01:45:49.743Z,28.48
2022-08-20T01:45:59.747Z,28.46
2022-08-20T01:46:09.743Z,28.48
2022-08-20T01:46:19.745Z,28.46
2022-08-20T01:46:29.739Z,28.48
2022-08-20T01:46:43.700Z,28.46
2022-08-20T01:46:59.739Z,28.50
2022-08-20T01:47:09.737Z,28.46
2022-08-20T01:47:19.740Z,28.46
2022-08-20T01:47:29.735Z,28.50
2022-08-20T01:47:39.734Z,28.48
2022-08-20T01:47:49.821Z,28.46
2022-08-20T01:47:59.734Z,28.45
2022-08-20T01:48:09.782Z,28.50
2022-08-20T01:48:19.731Z,28.50
2022-08-20T01:48:29.734Z,28.46
2022-08-20T01:48:39.729Z,28.48
2022-08-20T01:48:49.726Z,28.46
2022-08-20T01:48:59.747Z,28.50
2022-08-20T01:49:13.473Z,28.48
2022-08-20T01:49:23.128Z,28.50
2022-08-20T01:49:39.719Z,28.46
2022-08-20T01:49:49.724Z,28.46
2022-08-20T01:49:59.715Z,28.46
2022-08-20T01:50:09.720Z,28.46
2022-08-20T01:50:19.713Z,28.45
2022-08-20T01:50:29.715Z,28.48
2022-08-20T01:50:39.709Z,28.46
2022-08-20T01:50:49.714Z,28.46
2022-08-20T01:50:59.708Z,28.48
2022-08-20T01:51:09.712Z,28.50
2022-08-20T01:51:19.707Z,28.48
2022-08-20T01:51:29.709Z,28.46
2022-08-20T01:51:39.709Z,28.48
2022-08-20T01:51:49.708Z,28.45
2022-08-20T01:52:09.706Z,28.51
2022-08-20T01:52:19.700Z,28.48
2022-08-20T01:52:29.702Z,28.48
2022-08-20T01:52:39.702Z,28.48
2022-08-20T01:52:49.706Z,28.50
2022-08-20T01:52:59.693Z,28.48
2022-08-20T01:53:09.699Z,28.50
2022-08-20T01:53:19.696Z,28.46
2022-08-20T01:53:29.696Z,28.48
2022-08-20T01:53:39.692Z,28.48
2022-08-20T01:53:49.695Z,28.46
2022-08-20T01:53:59.690Z,28.46
2022-08-20T01:54:09.708Z,28.48
2022-08-20T01:54:19.690Z,28.48
2022-08-20T01:54:39.683Z,28.48
2022-08-20T01:54:49.687Z,28.48
2022-08-20T01:54:59.686Z,28.50
2022-08-20T01:55:09.703Z,28.46
2022-08-20T01:55:19.682Z,28.46
2022-08-20T01:55:29.686Z,28.48
2022-08-20T01:55:39.683Z,28.46
2022-08-20T01:55:49.681Z,28.51
2022-08-20T01:55:59.676Z,28.50
2022-08-20T01:56:09.681Z,28.46
2022-08-20T01:56:19.675Z,28.48
2022-08-20T01:56:29.675Z,28.50
2022-08-20T01:56:39.673Z,28.46
2022-08-20T01:56:49.676Z,28.46
2022-08-20T01:57:09.670Z,28.46
2022-08-20T01:57:19.671Z,28.46
2022-08-20T01:57:29.714Z,28.48
2022-08-20T01:57:39.668Z,28.51
2022-08-20T01:57:49.737Z,28.46
2022-08-20T01:57:59.668Z,28.46
2022-08-20T01:58:09.669Z,28.46
2022-08-20T01:58:19.668Z,28.48
2022-08-20T01:58:29.669Z,28.51
2022-08-20T01:58:39.660Z,28.45
2022-08-20T01:58:49.663Z,28.48
2022-08-20T01:59:00.366Z,28.50
2022-08-20T01:59:09.659Z,28.46
2022-08-20T01:59:19.656Z,28.46
2022-08-20T01:59:39.652Z,28.48
2022-08-20T01:59:49.653Z,28.46
2022-08-20T01:59:59.651Z,28.50
2022-08-20T02:00:09.655Z,28.46
2022-08-20T02:00:24.181Z,28.48
2022-08-20T02:00:29.650Z,28.46
2022-08-20T02:00:39.646Z,28.46
2022-08-20T02:00:49.646Z,28.46
2022-08-20T02:00:59.645Z,28.48
2022-08-20T02:01:09.673Z,28.50
2022-08-20T02:01:19.667Z,28.48
2022-08-20T02:01:29.706Z,28.46
2022-08-20T02:01:45.995Z,28.48
2022-08-20T02:01:51.499Z,28.48
2022-08-20T02:02:09.653Z,28.51
2022-08-20T02:02:19.643Z,28.51
2022-08-20T02:02:29.642Z,28.45
2022-08-20T02:02:39.638Z,28.50
2022-08-20T02:02:49.638Z,28.48
2022-08-20T02:02:59.631Z,28.48
2022-08-20T02:03:09.635Z,28.46
2022-08-20T02:03:19.637Z,28.50
2022-08-20T02:03:31.676Z,28.46
2022-08-20T02:03:44.383Z,28.50
2022-08-20T02:03:49.653Z,28.46
2022-08-20T02:03:59.622Z,28.48
2022-08-20T02:04:09.637Z,28.52
2022-08-20T02:04:29.626Z,28.48
2022-08-20T02:04:39.619Z,28.46
2022-08-20T02:04:49.624Z,28.46
2022-08-20T02:04:59.618Z,28.51
2022-08-20T02:05:09.619Z,28.46
2022-08-20T02:05:19.628Z,28.46
2022-08-20T02:05:30.595Z,28.48
2022-08-20T02:05:39.617Z,28.48
2022-08-20T02:05:49.615Z,28.51
2022-08-20T02:05:59.613Z,28.48
2022-08-20T02:06:09.625Z,28.50
2022-08-20T02:06:19.610Z,28.50
2022-08-20T02:06:29.613Z,28.48
2022-08-20T02:06:39.605Z,28.51
2022-08-20T02:07:00.434Z,28.48
2022-08-20T02:07:05.102Z,28.48
2022-08-20T02:07:15.099Z,28.50
2022-08-20T02:07:25.099Z,28.50
2022-08-20T02:07:35.092Z,28.50
2022-08-20T02:07:45.094Z,28.51
2022-08-20T02:07:55.290Z,28.48
2022-08-20T02:08:05.088Z,28.48
2022-08-20T02:08:15.093Z,28.48
2022-08-20T02:08:25.086Z,28.50
2022-08-20T02:08:35.089Z,28.46
2022-08-20T02:08:45.086Z,28.48
2022-08-20T02:08:55.087Z,28.48
2022-08-20T02:09:05.082Z,28.50
2022-08-20T02:09:16.263Z,28.46
2022-08-20T02:09:25.083Z,28.50
2022-08-20T02:09:35.086Z,28.48
2022-08-20T02:09:45.076Z,28.48
2022-08-20T02:09:55.083Z,28.50
2022-08-20T02:10:05.075Z,28.48
2022-08-20T02:10:15.107Z,28.46
2022-08-20T02:10:25.073Z,28.50
2022-08-20T02:10:35.090Z,28.46
2022-08-20T02:10:45.095Z,28.50
2022-08-20T02:10:55.074Z,28.50
2022-08-20T02:11:05.068Z,28.48
2022-08-20T02:11:15.072Z,28.50
2022-08-20T02:11:25.067Z,28.48
2022-08-20T02:11:35.071Z,28.48
2022-08-20T02:11:45.065Z,28.45
2022-08-20T02:11:55.069Z,28.46
2022-08-20T02:12:05.063Z,28.46
2022-08-20T02:12:15.068Z,28.46
2022-08-20T02:12:25.061Z,28.50
2022-08-20T02:12:35.064Z,28.46
2022-08-20T02:12:45.059Z,28.48
2022-08-20T02:12:55.059Z,28.45
2022-08-20T02:13:05.058Z,28.46
2022-08-20T02:13:15.056Z,28.45
2022-08-20T02:13:25.055Z,28.45
2022-08-20T02:13:35.054Z,28.50
2022-08-20T02:13:45.050Z,28.48
2022-08-20T02:13:55.056Z,28.46
2022-08-20T02:14:05.049Z,28.46
2022-08-20T02:14:15.051Z,28.45
2022-08-20T02:14:25.047Z,28.48
2022-08-20T02:14:35.053Z,28.46